To NAV CANADA Home Page Login to a new session Search on AWWS site Feedback and Comments Disclaimer Vers la page française équivalente Tips FAQ What's new on the site To the Forecasts and Observations / NOTAM section To "File a Flight Plan" website Publications and other links Update of the User's profile FIC Telephone Numbers My Weather Data Folder Route Weather Data Regional Weather Data Local Weather Data To the Forecasts and Observations / NOTAM section
Request Generated 05/25/2016 at 16:48:14 UTC . Weather information available at that time is displayed.

METAR/TAF

WINDSOR/ON    

METAR CYQG 251600Z 24011KT 15SM BKN280 28/14 A3007 RMK CC5 CI ASOCTD
SLP183 DENSITY ALT 2000FT=
METAR CYQG 251500Z 24012KT 15SM SCT280 26/15 A3009 RMK CI4 SLP189
DENSITY ALT 1800FT=
METAR CYQG 251400Z 23008KT 15SM BKN280 24/14 A3008 RMK CI7 SLP185
DENSITY ALT 1600FT=

TAF CYQG 251138Z 2512/2612 21008KT P6SM BKN270
BECMG 2515/2517 21015KT FEW060 SCT280
FM260600 19010KT P6SM BKN030 OVC280
FM261000 19008KT P6SM -SHRA BKN030 OVC080 PROB30 2610/2612 3SM
TSRA BKN007 OVC030CB
RMK NXT FCST BY 251800Z=
Your time UTC time
Weather data provided by Environment Canada and NAV CANADA